Time;durP1;ratioP1;P1;durP2;ratioP2;P2;SDS_P1;SDS_P2;PMS_P1;PMS_P2;Temp;Humidity;BMP_temperature;BMP_pressure;BME280_temperature;BME280_humidity;BME280_pressure;Samples;Min_cycle;Max_cycle;Signal;HPM_P1;HPM_P2
2024/04/13 00:01:41;;;;;;;7.40;4.50;;;;;;;;;;5448296;26;20003;-66
2024/04/13 00:04:11;;;;;;;7.65;4.88;;;;;;;;;;5447132;26;20002;-66
2024/04/13 00:06:41;;;;;;;6.32;4.38;;;;;;;;;;5444978;26;20002;-65
2024/04/13 00:09:11;;;;;;;4.95;4.45;;;;;;;;;;5443692;26;20011;-66
2024/04/13 00:11:42;;;;;;;6.15;4.45;;;;;;;;;;5449056;26;19998;-66
2024/04/13 00:14:09;;;;;;;5.65;4.28;;;;;;;;;;5448646;26;20072;-66
2024/04/13 00:16:40;;;;;;;5.78;4.32;;;;;;;;;;5448769;26;20463;-65
2024/04/13 00:19:11;;;;;;;7.50;4.93;;;;;;;;;;5447964;26;20017;-66
2024/04/13 00:21:42;;;;;;;5.78;4.70;;;;;;;;;;5436130;26;20007;-67
2024/04/13 00:24:11;;;;;;;6.43;4.35;;;;;;;;;;5444183;26;19999;-67
2024/04/13 00:26:41;;;;;;;4.82;4.18;;;;;;;;;;5438469;26;20007;-65
2024/04/13 00:29:09;;;;;;;6.32;4.95;;;;;;;;;;5448232;26;19999;-65
2024/04/13 00:31:39;;;;;;;6.22;4.70;;;;;;;;;;5442912;26;20018;-66
2024/04/13 00:34:07;;;;;;;4.97;4.25;;;;;;;;;;5447897;26;20015;-68
2024/04/13 00:36:40;;;;;;;6.03;4.22;;;;;;;;;;5447847;26;20002;-67
2024/04/13 00:39:08;;;;;;;7.20;4.53;;;;;;;;;;5436976;26;20464;-66
2024/04/13 00:41:39;;;;;;;4.60;3.67;;;;;;;;;;5449055;26;20398;-66
2024/04/13 00:44:07;;;;;;;4.38;3.42;;;;;;;;;;5441460;26;20014;-66
2024/04/13 00:46:39;;;;;;;5.68;4.00;;;;;;;;;;5446489;26;20003;-66
2024/04/13 00:49:13;;;;;;;5.72;4.20;;;;;;;;;;5447931;26;20427;-66
2024/04/13 00:51:48;;;;;;;6.90;4.37;;;;;;;;;;5449459;26;20332;-65
2024/04/13 00:54:18;;;;;;;6.15;4.22;;;;;;;;;;5448464;26;20449;-67
2024/04/13 00:56:50;;;;;;;6.70;3.53;;;;;;;;;;5440063;26;20006;-67
2024/04/13 00:59:17;;;;;;;4.72;3.50;;;;;;;;;;5448069;26;21515;-68
2024/04/13 01:01:48;;;;;;;4.43;3.42;;;;;;;;;;5448002;26;20011;-66
2024/04/13 01:04:16;;;;;;;4.85;3.70;;;;;;;;;;5448586;26;19999;-66
2024/04/13 01:06:49;;;;;;;4.40;3.55;;;;;;;;;;5425173;26;20000;-66
2024/04/13 01:09:18;;;;;;;5.63;3.90;;;;;;;;;;5442181;26;20049;-67
2024/04/13 01:11:48;;;;;;;3.90;3.25;;;;;;;;;;5444969;26;20605;-67
2024/04/13 01:14:17;;;;;;;4.43;3.40;;;;;;;;;;5445519;26;20551;-64
2024/04/13 01:16:47;;;;;;;3.88;3.22;;;;;;;;;;5440985;26;20014;-66
2024/04/13 01:19:15;;;;;;;4.68;3.60;;;;;;;;;;5442782;26;20015;-67
2024/04/13 01:21:46;;;;;;;5.43;4.10;;;;;;;;;;5433040;26;20017;-68
2024/04/13 01:24:16;;;;;;;4.07;3.67;;;;;;;;;;5443918;26;20083;-67
2024/04/13 01:26:47;;;;;;;4.80;4.10;;;;;;;;;;5444832;26;20010;-68
2024/04/13 01:29:14;;;;;;;5.65;3.53;;;;;;;;;;5442530;26;20456;-64
2024/04/13 01:31:44;;;;;;;4.55;3.75;;;;;;;;;;5448372;26;20080;-65
2024/04/13 01:34:12;;;;;;;4.60;3.65;;;;;;;;;;5421562;26;20003;-64
2024/04/13 01:36:42;;;;;;;4.03;3.40;;;;;;;;;;5441257;26;20041;-65
2024/04/13 01:39:11;;;;;;;5.93;4.32;;;;;;;;;;5447761;26;20003;-64
2024/04/13 01:41:44;;;;;;;5.70;4.30;;;;;;;;;;5447502;26;20018;-64
2024/04/13 01:44:12;;;;;;;5.35;3.50;;;;;;;;;;5447747;26;20003;-64
2024/04/13 01:46:42;;;;;;;5.32;4.45;;;;;;;;;;5445807;26;20017;-65
2024/04/13 01:49:10;;;;;;;6.35;4.28;;;;;;;;;;5447073;26;20003;-64
2024/04/13 01:51:40;;;;;;;7.82;4.22;;;;;;;;;;5448080;26;20003;-64
2024/04/13 01:54:08;;;;;;;4.75;3.80;;;;;;;;;;5447932;26;20052;-65
2024/04/13 01:56:38;;;;;;;4.28;3.83;;;;;;;;;;5446526;26;20017;-65
2024/04/13 01:59:08;;;;;;;4.57;3.60;;;;;;;;;;5446259;26;20006;-66
2024/04/13 02:01:38;;;;;;;5.32;3.88;;;;;;;;;;5447350;26;20084;-65
2024/04/13 02:04:06;;;;;;;6.20;3.78;;;;;;;;;;5441545;26;20010;-65
2024/04/13 02:06:36;;;;;;;8.00;3.65;;;;;;;;;;5438703;26;20002;-66
2024/04/13 02:09:04;;;;;;;6.65;3.55;;;;;;;;;;5446943;26;20011;-66
2024/04/13 02:11:34;;;;;;;4.30;3.40;;;;;;;;;;5427890;26;20014;-67
2024/04/13 02:14:01;;;;;;;4.43;3.35;;;;;;;;;;5446609;26;20320;-67
2024/04/13 02:16:34;;;;;;;4.10;3.45;;;;;;;;;;5444823;26;20003;-66
2024/04/13 02:19:02;;;;;;;4.07;3.63;;;;;;;;;;5438489;26;20079;-66
2024/04/13 02:21:33;;;;;;;5.05;3.72;;;;;;;;;;5433687;26;20011;-67
2024/04/13 02:24:00;;;;;;;4.28;3.70;;;;;;;;;;5446156;26;20013;-65
2024/04/13 02:26:31;;;;;;;3.85;3.30;;;;;;;;;;5443471;26;20123;-66
2024/04/13 02:28:59;;;;;;;4.97;4.07;;;;;;;;;;5442345;26;19999;-67
2024/04/13 02:31:29;;;;;;;6.28;3.47;;;;;;;;;;5448231;26;20574;-66
2024/04/13 02:34:00;;;;;;;6.03;4.18;;;;;;;;;;5446801;26;20452;-67
2024/04/13 02:36:30;;;;;;;3.80;3.13;;;;;;;;;;5444182;26;20017;-66
2024/04/13 02:38:57;;;;;;;3.83;3.30;;;;;;;;;;5441471;26;20003;-67
2024/04/13 02:41:28;;;;;;;4.28;3.13;;;;;;;;;;5447105;26;20014;-66
2024/04/13 02:43:55;;;;;;;4.30;3.35;;;;;;;;;;5430161;26;20010;-66
2024/04/13 02:46:25;;;;;;;4.05;3.03;;;;;;;;;;5444921;26;20010;-66
2024/04/13 02:48:53;;;;;;;5.65;3.30;;;;;;;;;;5446504;26;19999;-66
2024/04/13 02:51:26;;;;;;;3.78;3.33;;;;;;;;;;5446258;26;20026;-66
2024/04/13 02:53:53;;;;;;;4.68;3.30;;;;;;;;;;5441303;26;20015;-67
2024/04/13 02:56:24;;;;;;;5.18;3.53;;;;;;;;;;5444270;26;20348;-67
2024/04/13 02:58:51;;;;;;;5.03;3.15;;;;;;;;;;5446045;26;20014;-66
2024/04/13 03:01:21;;;;;;;5.38;3.58;;;;;;;;;;5445941;26;20328;-67
2024/04/13 03:03:49;;;;;;;3.20;2.90;;;;;;;;;;5441790;26;19996;-66
2024/04/13 03:06:19;;;;;;;4.05;3.28;;;;;;;;;;5438647;26;20084;-66
2024/04/13 03:08:50;;;;;;;4.25;3.22;;;;;;;;;;5447090;26;20002;-66
2024/04/13 03:11:21;;;;;;;3.42;2.80;;;;;;;;;;5445588;26;20022;-66
2024/04/13 03:13:49;;;;;;;5.55;3.20;;;;;;;;;;5445990;26;20600;-67
2024/04/13 03:16:21;;;;;;;5.25;3.20;;;;;;;;;;5445244;26;20018;-66
2024/04/13 03:18:49;;;;;;;4.68;3.47;;;;;;;;;;5440250;26;19995;-66
2024/04/13 03:21:20;;;;;;;5.30;3.22;;;;;;;;;;5433235;26;20019;-66
2024/04/13 03:23:50;;;;;;;3.95;2.95;;;;;;;;;;5445630;26;20416;-67
2024/04/13 03:26:20;;;;;;;5.07;3.38;;;;;;;;;;5437315;26;20478;-66
2024/04/13 03:28:48;;;;;;;4.28;3.13;;;;;;;;;;5447898;26;19999;-66
2024/04/13 03:31:18;;;;;;;5.93;3.47;;;;;;;;;;5443495;26;20451;-66
2024/04/13 03:33:45;;;;;;;3.88;2.80;;;;;;;;;;5450016;26;20072;-67
2024/04/13 03:36:15;;;;;;;4.05;3.17;;;;;;;;;;5448640;26;20014;-67
2024/04/13 03:38:48;;;;;;;4.00;3.22;;;;;;;;;;5448712;26;19995;-66
2024/04/13 03:41:20;;;;;;;3.63;3.10;;;;;;;;;;5435918;26;20011;-65
2024/04/13 03:43:48;;;;;;;5.03;3.10;;;;;;;;;;5449987;26;19998;-68
2024/04/13 03:46:18;;;;;;;5.22;3.33;;;;;;;;;;5441967;26;20045;-66
2024/04/13 03:48:46;;;;;;;4.53;3.10;;;;;;;;;;5448242;26;20075;-66
2024/04/13 03:51:17;;;;;;;5.55;3.30;;;;;;;;;;5447287;26;20558;-66
2024/04/13 03:53:45;;;;;;;4.18;3.33;;;;;;;;;;5442973;26;20071;-66
2024/04/13 03:56:16;;;;;;;3.72;3.20;;;;;;;;;;5448181;26;20018;-66
2024/04/13 03:58:49;;;;;;;4.25;3.03;;;;;;;;;;5449251;26;20615;-66
2024/04/13 04:01:17;;;;;;;7.28;3.13;;;;;;;;;;5448516;26;20014;-66
2024/04/13 04:03:47;;;;;;;4.30;3.13;;;;;;;;;;5446001;26;20002;-67
2024/04/13 04:06:15;;;;;;;3.50;3.17;;;;;;;;;;5440516;26;20083;-66
2024/04/13 04:08:45;;;;;;;3.75;3.00;;;;;;;;;;5437350;26;20009;-65
2024/04/13 04:11:12;;;;;;;5.03;3.22;;;;;;;;;;5445046;26;20003;-66
2024/04/13 04:13:42;;;;;;;4.13;2.85;;;;;;;;;;5448815;26;20355;-65
2024/04/13 04:16:12;;;;;;;4.13;3.15;;;;;;;;;;5447317;26;20002;-67
2024/04/13 04:18:43;;;;;;;4.28;3.13;;;;;;;;;;5449592;26;19998;-66
2024/04/13 04:21:11;;;;;;;4.75;3.30;;;;;;;;;;5434477;26;20468;-65
2024/04/13 04:23:41;;;;;;;4.60;2.97;;;;;;;;;;5448970;26;20018;-66
2024/04/13 04:26:09;;;;;;;3.45;3.08;;;;;;;;;;5436945;26;20858;-66
2024/04/13 04:28:39;;;;;;;5.13;2.90;;;;;;;;;;5447650;26;19999;-66
2024/04/13 04:31:13;;;;;;;5.05;3.20;;;;;;;;;;5449571;26;20409;-66
2024/04/13 04:33:43;;;;;;;3.20;2.80;;;;;;;;;;5445957;26;20003;-67
2024/04/13 04:36:11;;;;;;;4.75;3.30;;;;;;;;;;5447478;26;20003;-66
2024/04/13 04:38:41;;;;;;;3.05;2.75;;;;;;;;;;5447575;26;20009;-66
2024/04/13 04:41:09;;;;;;;3.65;3.13;;;;;;;;;;5448350;26;19999;-68
2024/04/13 04:43:39;;;;;;;5.15;2.92;;;;;;;;;;5448316;26;19999;-65
2024/04/13 04:46:08;;;;;;;4.10;3.10;;;;;;;;;;5438269;26;20455;-65
2024/04/13 04:48:41;;;;;;;4.93;3.10;;;;;;;;;;5447076;26;20417;-66
2024/04/13 04:51:09;;;;;;;4.00;3.25;;;;;;;;;;5448181;26;20055;-65
2024/04/13 04:53:39;;;;;;;3.88;3.08;;;;;;;;;;5448013;26;20035;-66
2024/04/13 04:56:07;;;;;;;4.55;3.10;;;;;;;;;;5448543;26;20007;-66
2024/04/13 04:58:37;;;;;;;3.30;2.95;;;;;;;;;;5448431;26;19995;-66
2024/04/13 05:01:04;;;;;;;2.88;2.50;;;;;;;;;;5447876;26;20003;-66
2024/04/13 05:03:35;;;;;;;3.80;3.00;;;;;;;;;;5447773;26;20006;-66
2024/04/13 05:06:05;;;;;;;2.97;2.67;;;;;;;;;;5438222;26;20011;-65
2024/04/13 05:08:36;;;;;;;3.08;2.78;;;;;;;;;;5449359;26;20448;-66
2024/04/13 05:11:03;;;;;;;3.60;3.25;;;;;;;;;;5448486;26;20075;-66
2024/04/13 05:13:34;;;;;;;3.85;3.10;;;;;;;;;;5440855;26;20011;-66
2024/04/13 05:16:01;;;;;;;3.75;2.97;;;;;;;;;;5446587;26;20003;-67
2024/04/13 05:18:31;;;;;;;4.05;3.13;;;;;;;;;;5444937;26;19999;-65
2024/04/13 05:20:59;;;;;;;3.17;2.88;;;;;;;;;;5434784;26;20007;-66
2024/04/13 05:23:32;;;;;;;4.28;2.97;;;;;;;;;;5448201;26;19999;-65
2024/04/13 05:26:00;;;;;;;3.22;2.78;;;;;;;;;;5442582;26;20017;-66
2024/04/13 05:28:30;;;;;;;3.55;3.03;;;;;;;;;;5442060;26;20507;-66
2024/04/13 05:31:00;;;;;;;5.65;3.08;;;;;;;;;;5445737;26;20039;-64
2024/04/13 05:33:30;;;;;;;3.63;2.95;;;;;;;;;;5441193;26;20075;-65
2024/04/13 05:35:58;;;;;;;3.30;3.00;;;;;;;;;;5446612;26;20077;-66
2024/04/13 05:38:36;;;;;;;3.53;2.75;;;;;;;;;;5444224;26;20479;-66
2024/04/13 05:41:04;;;;;;;4.20;3.10;;;;;;;;;;5447690;26;20006;-67
2024/04/13 05:43:34;;;;;;;4.70;3.05;;;;;;;;;;5447766;26;20524;-66
2024/04/13 05:46:02;;;;;;;4.28;3.05;;;;;;;;;;5443245;26;20029;-67
2024/04/13 05:48:33;;;;;;;3.97;3.17;;;;;;;;;;5446825;26;20439;-67
2024/04/13 05:51:00;;;;;;;4.00;3.22;;;;;;;;;;5446708;26;20003;-67
2024/04/13 05:53:31;;;;;;;3.15;2.70;;;;;;;;;;5444893;26;19999;-66
2024/04/13 05:56:07;;;;;;;3.38;3.08;;;;;;;;;;5443642;26;20000;-66
2024/04/13 05:58:38;;;;;;;3.85;3.20;;;;;;;;;;5430996;26;19999;-66
2024/04/13 06:01:05;;;;;;;3.55;2.83;;;;;;;;;;5446321;26;20354;-67
2024/04/13 06:03:36;;;;;;;5.00;2.85;;;;;;;;;;5447493;26;20545;-66
2024/04/13 06:06:03;;;;;;;4.00;2.85;;;;;;;;;;5437430;26;20006;-66
2024/04/13 06:08:34;;;;;;;3.70;3.00;;;;;;;;;;5447995;26;20076;-65
2024/04/13 06:11:03;;;;;;;3.65;3.10;;;;;;;;;;5448018;26;20002;-66
2024/04/13 06:13:36;;;;;;;4.03;3.22;;;;;;;;;;5444618;26;19999;-68
2024/04/13 06:16:03;;;;;;;3.97;3.10;;;;;;;;;;5439910;26;20011;-67
2024/04/13 06:18:34;;;;;;;4.00;2.72;;;;;;;;;;5440679;26;20051;-67
2024/04/13 06:21:03;;;;;;;4.22;3.17;;;;;;;;;;5429142;26;20011;-67
2024/04/13 06:23:33;;;;;;;4.82;3.60;;;;;;;;;;5444423;26;20394;-68
2024/04/13 06:26:01;;;;;;;4.13;3.15;;;;;;;;;;5444794;26;20035;-67
2024/04/13 06:28:31;;;;;;;4.63;3.42;;;;;;;;;;5441066;26;20004;-67
2024/04/13 06:31:01;;;;;;;4.13;3.20;;;;;;;;;;5427900;26;20025;-68
2024/04/13 06:33:32;;;;;;;3.53;3.22;;;;;;;;;;5447260;26;20003;-67
2024/04/13 06:35:59;;;;;;;7.03;2.92;;;;;;;;;;5446890;26;20003;-67
2024/04/13 06:38:29;;;;;;;4.03;2.75;;;;;;;;;;5445980;26;20340;-67
2024/04/13 06:40:57;;;;;;;4.97;3.20;;;;;;;;;;5446200;26;20007;-68
2024/04/13 06:43:27;;;;;;;3.85;2.80;;;;;;;;;;5446260;26;20009;-67
2024/04/13 06:45:55;;;;;;;3.95;2.88;;;;;;;;;;5445245;26;20003;-67
2024/04/13 06:48:28;;;;;;;2.95;2.67;;;;;;;;;;5425186;26;20068;-67
2024/04/13 06:50:56;;;;;;;3.20;2.90;;;;;;;;;;5437533;26;20007;-67
2024/04/13 06:53:26;;;;;;;2.97;2.47;;;;;;;;;;5439928;26;20080;-67
2024/04/13 06:55:53;;;;;;;5.30;2.85;;;;;;;;;;5442616;26;20014;-66
2024/04/13 06:58:23;;;;;;;2.50;2.30;;;;;;;;;;5448395;26;19999;-67
2024/04/13 07:00:55;;;;;;;3.00;2.70;;;;;;;;;;5450436;26;20352;-67
2024/04/13 07:03:28;;;;;;;5.45;2.53;;;;;;;;;;5449252;26;20348;-67
2024/04/13 07:05:57;;;;;;;5.25;2.38;;;;;;;;;;5441896;26;20006;-67
2024/04/13 07:08:27;;;;;;;2.97;2.20;;;;;;;;;;5445222;26;20076;-66
2024/04/13 07:10:55;;;;;;;3.35;2.33;;;;;;;;;;5449531;26;20010;-66
2024/04/13 07:13:25;;;;;;;6.32;2.63;;;;;;;;;;5449622;26;20017;-67
2024/04/13 07:15:53;;;;;;;2.70;2.47;;;;;;;;;;5448579;26;20002;-67
2024/04/13 07:18:23;;;;;;;4.25;3.05;;;;;;;;;;5435853;26;20015;-65
2024/04/13 07:20:53;;;;;;;3.88;2.40;;;;;;;;;;5429926;26;20014;-64
2024/04/13 07:23:23;;;;;;;3.80;2.80;;;;;;;;;;5450086;26;20003;-64
2024/04/13 07:25:57;;;;;;;3.67;2.38;;;;;;;;;;5448845;26;19998;-65
2024/04/13 07:28:27;;;;;;;4.25;2.83;;;;;;;;;;5444738;26;20007;-65
2024/04/13 07:30:55;;;;;;;3.88;2.35;;;;;;;;;;5447588;26;19999;-65
2024/04/13 07:33:25;;;;;;;2.78;2.20;;;;;;;;;;5449873;26;20007;-65
2024/04/13 07:35:55;;;;;;;5.65;3.00;;;;;;;;;;5438180;26;20452;-64
2024/04/13 07:38:25;;;;;;;3.17;2.78;;;;;;;;;;5443592;26;20079;-65
2024/04/13 07:40:53;;;;;;;2.67;2.42;;;;;;;;;;5446860;26;20011;-65
2024/04/13 07:43:23;;;;;;;5.88;2.50;;;;;;;;;;5448634;26;19999;-64
2024/04/13 07:45:52;;;;;;;2.97;2.63;;;;;;;;;;5449632;26;20036;-64
2024/04/13 07:48:22;;;;;;;5.28;3.08;;;;;;;;;;5448948;26;20002;-64
2024/04/13 07:50:50;;;;;;;2.88;2.30;;;;;;;;;;5439429;26;20088;-63
2024/04/13 07:53:22;;;;;;;3.13;2.05;;;;;;;;;;5448263;26;20014;-64
2024/04/13 07:55:50;;;;;;;2.92;2.40;;;;;;;;;;5448172;26;20009;-62
2024/04/13 07:58:20;;;;;;;5.75;3.13;;;;;;;;;;5446011;26;20018;-63
2024/04/13 08:00:48;;;;;;;3.95;2.67;;;;;;;;;;5435469;26;20067;-63
2024/04/13 08:03:18;;;;;;;3.58;2.33;;;;;;;;;;5447974;26;20027;-63
2024/04/13 08:05:47;;;;;;;4.55;2.13;;;;;;;;;;5442656;26;20011;-64
2024/04/13 08:08:17;;;;;;;4.45;2.63;;;;;;;;;;5448846;26;20019;-63
2024/04/13 08:10:50;;;;;;;2.95;2.63;;;;;;;;;;5447782;26;20014;-63
2024/04/13 08:13:17;;;;;;;4.90;3.08;;;;;;;;;;5449700;26;20031;-64
2024/04/13 08:15:47;;;;;;;5.00;2.70;;;;;;;;;;5447399;26;20411;-64
2024/04/13 08:18:15;;;;;;;2.90;2.13;;;;;;;;;;5432878;26;20015;-64
2024/04/13 08:20:46;;;;;;;4.60;2.60;;;;;;;;;;5434240;26;20015;-62
2024/04/13 08:23:14;;;;;;;3.25;2.20;;;;;;;;;;5447644;26;20464;-63
2024/04/13 08:25:45;;;;;;;4.75;2.20;;;;;;;;;;5448358;26;20048;-64
2024/04/13 08:28:15;;;;;;;3.67;2.40;;;;;;;;;;5430924;26;20013;-63
2024/04/13 08:30:45;;;;;;;2.85;2.40;;;;;;;;;;5439194;26;19999;-62
2024/04/13 08:33:13;;;;;;;8.32;3.30;;;;;;;;;;5448841;26;20002;-63
2024/04/13 08:35:44;;;;;;;5.00;3.40;;;;;;;;;;5448629;26;19999;-62
2024/04/13 08:38:11;;;;;;;3.45;2.80;;;;;;;;;;5441450;26;20081;-65
2024/04/13 08:40:45;;;;;;;3.00;2.50;;;;;;;;;;5442670;26;20352;-63
2024/04/13 08:43:14;;;;;;;4.63;2.92;;;;;;;;;;5438881;26;20459;-64
2024/04/13 08:45:47;;;;;;;3.60;2.60;;;;;;;;;;5438745;26;20000;-64
2024/04/13 08:48:14;;;;;;;3.15;2.42;;;;;;;;;;5442321;26;20003;-63
2024/04/13 08:50:45;;;;;;;3.28;2.38;;;;;;;;;;5442817;26;19999;-64
2024/04/13 08:53:14;;;;;;;4.45;2.80;;;;;;;;;;5433843;26;20011;-65
2024/04/13 08:55:44;;;;;;;4.30;2.92;;;;;;;;;;5442952;26;19999;-65
2024/04/13 08:58:14;;;;;;;5.63;2.60;;;;;;;;;;5447771;26;20007;-64
2024/04/13 09:00:49;;;;;;;3.40;2.42;;;;;;;;;;5441838;26;20080;-63
2024/04/13 09:03:19;;;;;;;3.35;2.25;;;;;;;;;;5469954;26;20018;-65
2024/04/13 09:05:49;;;;;;;3.85;2.30;;;;;;;;;;5423675;26;20029;-65
2024/04/13 09:08:16;;;;;;;6.35;3.03;;;;;;;;;;5448189;26;20026;-63
2024/04/13 09:10:51;;;;;;;4.22;2.42;;;;;;;;;;5447889;26;20079;-64
2024/04/13 09:13:18;;;;;;;3.30;2.33;;;;;;;;;;5449164;26;20018;-64
2024/04/13 09:15:51;;;;;;;3.28;2.30;;;;;;;;;;5442597;26;20003;-64
2024/04/13 09:18:19;;;;;;;4.15;2.53;;;;;;;;;;5434608;26;20325;-65
2024/04/13 09:20:49;;;;;;;3.95;2.50;;;;;;;;;;5429511;26;20003;-63
2024/04/13 09:23:17;;;;;;;3.28;2.00;;;;;;;;;;5435764;26;20014;-64
2024/04/13 09:25:47;;;;;;;4.22;2.85;;;;;;;;;;5440113;26;20010;-65
2024/04/13 09:28:15;;;;;;;3.40;2.30;;;;;;;;;;5447500;26;19999;-65
2024/04/13 09:30:45;;;;;;;3.65;2.63;;;;;;;;;;5446386;26;19999;-65
2024/04/13 09:33:15;;;;;;;2.78;2.17;;;;;;;;;;5442242;26;20014;-64
2024/04/13 09:35:45;;;;;;;3.10;2.53;;;;;;;;;;5447593;26;20460;-64
2024/04/13 09:38:16;;;;;;;3.45;2.42;;;;;;;;;;5447823;26;20446;-64
2024/04/13 09:40:46;;;;;;;4.47;2.80;;;;;;;;;;5444508;26;20562;-64
2024/04/13 09:43:20;;;;;;;5.20;2.80;;;;;;;;;;5430915;26;20003;-64
2024/04/13 09:45:50;;;;;;;4.13;2.58;;;;;;;;;;5440777;26;20075;-64
2024/04/13 09:48:20;;;;;;;3.95;2.35;;;;;;;;;;5437472;26;20051;-64
2024/04/13 09:50:51;;;;;;;4.18;3.05;;;;;;;;;;5436014;26;19999;-63
2024/04/13 09:53:18;;;;;;;3.90;2.83;;;;;;;;;;5442446;26;20080;-63
2024/04/13 09:55:49;;;;;;;7.93;3.10;;;;;;;;;;5433920;26;20083;-62
2024/04/13 09:58:18;;;;;;;4.38;2.50;;;;;;;;;;5440919;26;20390;-64
2024/04/13 10:00:49;;;;;;;3.95;2.40;;;;;;;;;;5445693;26;19998;-63
2024/04/13 10:03:17;;;;;;;3.58;2.30;;;;;;;;;;5436206;26;20030;-64
2024/04/13 10:05:50;;;;;;;4.18;2.30;;;;;;;;;;5441835;26;20003;-64
2024/04/13 10:08:18;;;;;;;7.30;2.65;;;;;;;;;;5434624;26;20003;-64
2024/04/13 10:10:49;;;;;;;3.90;2.58;;;;;;;;;;5433960;26;20015;-64
2024/04/13 10:13:21;;;;;;;3.65;2.20;;;;;;;;;;5436702;26;20347;-64
2024/04/13 10:15:52;;;;;;;4.40;2.63;;;;;;;;;;5445502;26;19995;-65
2024/04/13 10:18:20;;;;;;;3.85;2.40;;;;;;;;;;5433111;26;20022;-65
2024/04/13 10:20:58;;;;;;;4.20;2.28;;;;;;;;;;5439899;26;20002;-64
2024/04/13 10:23:26;;;;;;;2.95;1.90;;;;;;;;;;5440032;26;20018;-65
2024/04/13 10:26:00;;;;;;;3.58;2.85;;;;;;;;;;5445309;26;20455;-65
2024/04/13 10:28:27;;;;;;;3.03;2.20;;;;;;;;;;5430142;26;20085;-65
2024/04/13 10:30:58;;;;;;;3.40;2.33;;;;;;;;;;5433673;26;20472;-65
2024/04/13 10:33:27;;;;;;;3.25;2.15;;;;;;;;;;5444497;26;20003;-64
2024/04/13 10:36:01;;;;;;;2.92;1.80;;;;;;;;;;5438904;26;20009;-65
2024/04/13 10:38:29;;;;;;;2.78;2.20;;;;;;;;;;5441374;26;20002;-65
2024/04/13 10:41:01;;;;;;;3.40;2.30;;;;;;;;;;5426645;26;20002;-68
2024/04/13 10:43:29;;;;;;;5.18;2.45;;;;;;;;;;5442964;26;20003;-68
2024/04/13 10:45:59;;;;;;;3.15;1.90;;;;;;;;;;5440830;26;20385;-64
2024/04/13 10:48:28;;;;;;;3.47;2.10;;;;;;;;;;5444812;26;20003;-64
2024/04/13 10:51:02;;;;;;;4.45;2.45;;;;;;;;;;5431140;26;20448;-65
2024/04/13 10:53:29;;;;;;;2.40;1.75;;;;;;;;;;5446185;26;20015;-64
2024/04/13 10:56:00;;;;;;;2.75;2.05;;;;;;;;;;5437894;26;21773;-64
2024/04/13 10:58:28;;;;;;;4.93;1.85;;;;;;;;;;5439392;26;20076;-64
2024/04/13 11:00:58;;;;;;;4.40;1.60;;;;;;;;;;5445045;26;20075;-65
2024/04/13 11:03:27;;;;;;;1.83;1.50;;;;;;;;;;5438683;26;20003;-64
2024/04/13 11:05:58;;;;;;;2.42;1.40;;;;;;;;;;5434266;26;20007;-65
2024/04/13 11:08:28;;;;;;;1.70;1.58;;;;;;;;;;5438543;26;20003;-64
2024/04/13 11:10:58;;;;;;;1.65;1.48;;;;;;;;;;5444499;26;19999;-65
2024/04/13 11:13:26;;;;;;;2.67;1.30;;;;;;;;;;5440144;26;20325;-65
2024/04/13 11:15:56;;;;;;;2.10;1.70;;;;;;;;;;5444375;26;21591;-64
2024/04/13 11:18:24;;;;;;;2.25;1.10;;;;;;;;;;5433376;26;20007;-64
2024/04/13 11:20:58;;;;;;;2.15;1.45;;;;;;;;;;5442711;26;20002;-64
2024/04/13 11:23:29;;;;;;;4.30;1.58;;;;;;;;;;5434527;26;20003;-65
2024/04/13 11:25:59;;;;;;;3.17;1.50;;;;;;;;;;5445048;26;20043;-66
2024/04/13 11:28:27;;;;;;;2.22;1.77;;;;;;;;;;5436752;26;20004;-65
2024/04/13 11:30:57;;;;;;;5.07;1.65;;;;;;;;;;5434608;26;20449;-65
2024/04/13 11:33:26;;;;;;;2.72;1.52;;;;;;;;;;5434273;26;20349;-66
2024/04/13 11:36:00;;;;;;;2.03;1.40;;;;;;;;;;5423055;26;20016;-66
2024/04/13 11:38:33;;;;;;;3.05;1.67;;;;;;;;;;5429174;26;20017;-65
2024/04/13 11:41:03;;;;;;;1.95;1.35;;;;;;;;;;5439124;26;20007;-65
2024/04/13 11:43:31;;;;;;;3.05;1.30;;;;;;;;;;5434921;26;20333;-64
2024/04/13 11:46:01;;;;;;;2.20;1.40;;;;;;;;;;5442534;26;20471;-65
2024/04/13 11:48:29;;;;;;;1.83;1.20;;;;;;;;;;5432861;26;20410;-66
2024/04/13 11:51:00;;;;;;;2.08;1.00;;;;;;;;;;5428218;26;20494;-64
2024/04/13 11:53:31;;;;;;;1.98;1.20;;;;;;;;;;5433930;26;20019;-64
2024/04/13 11:56:01;;;;;;;1.67;1.33;;;;;;;;;;5440015;26;20389;-65
2024/04/13 11:58:28;;;;;;;1.60;1.10;;;;;;;;;;5429918;26;20328;-64
2024/04/13 12:00:59;;;;;;;1.20;1.10;;;;;;;;;;5440030;26;20080;-67
2024/04/13 12:03:26;;;;;;;3.08;1.30;;;;;;;;;;5420160;26;20000;-65
2024/04/13 12:05:57;;;;;;;2.33;1.08;;;;;;;;;;5427714;26;20011;-64
2024/04/13 12:08:30;;;;;;;2.80;0.90;;;;;;;;;;5439295;26;20033;-65
2024/04/13 12:11:00;;;;;;;2.58;0.88;;;;;;;;;;5446636;26;20002;-64
2024/04/13 12:13:28;;;;;;;3.53;1.10;;;;;;;;;;5447598;26;20528;-65
2024/04/13 12:15:58;;;;;;;4.32;1.25;;;;;;;;;;5431185;26;20010;-65
2024/04/13 12:18:26;;;;;;;2.55;1.10;;;;;;;;;;5435347;26;20443;-64
2024/04/13 12:20:56;;;;;;;2.00;1.00;;;;;;;;;;5440013;26;20400;-65
2024/04/13 12:23:27;;;;;;;2.08;1.00;;;;;;;;;;5445689;26;20003;-65
2024/04/13 12:26:00;;;;;;;2.78;0.93;;;;;;;;;;5440348;26;20424;-65
2024/04/13 12:28:27;;;;;;;1.25;1.15;;;;;;;;;;5430501;26;20011;-66
2024/04/13 12:30:58;;;;;;;1.48;0.98;;;;;;;;;;5447115;26;20456;-64
2024/04/13 12:33:25;;;;;;;2.40;1.13;;;;;;;;;;5438954;26;19995;-65
2024/04/13 12:35:58;;;;;;;0.93;0.80;;;;;;;;;;5435830;26;20003;-63
2024/04/13 12:38:27;;;;;;;2.50;1.23;;;;;;;;;;5445041;26;19998;-64
2024/04/13 12:40:57;;;;;;;1.38;1.15;;;;;;;;;;5437012;26;20013;-65
2024/04/13 12:43:27;;;;;;;1.25;0.90;;;;;;;;;;5447519;26;20650;-66
2024/04/13 12:45:57;;;;;;;2.13;0.93;;;;;;;;;;5444619;26;20022;-65
2024/04/13 12:48:25;;;;;;;1.38;0.73;;;;;;;;;;5448064;26;20003;-66
2024/04/13 12:50:55;;;;;;;1.65;0.98;;;;;;;;;;5451019;26;20011;-66
2024/04/13 12:53:23;;;;;;;0.90;0.80;;;;;;;;;;5449307;26;19999;-65
2024/04/13 12:55:54;;;;;;;2.22;1.10;;;;;;;;;;5447215;26;20397;-65
2024/04/13 12:58:21;;;;;;;3.25;0.90;;;;;;;;;;5440482;26;20456;-65
2024/04/13 13:00:54;;;;;;;1.50;0.85;;;;;;;;;;5444636;26;20014;-64
2024/04/13 13:03:21;;;;;;;1.08;0.98;;;;;;;;;;5447960;26;20011;-65
2024/04/13 13:05:52;;;;;;;2.85;1.10;;;;;;;;;;5446012;26;20007;-66
2024/04/13 13:08:19;;;;;;;1.20;0.70;;;;;;;;;;5441905;26;19995;-65
2024/04/13 13:10:49;;;;;;;0.70;0.60;;;;;;;;;;5447492;26;20290;-64
2024/04/13 13:13:17;;;;;;;0.98;0.73;;;;;;;;;;5445556;26;20015;-65
2024/04/13 13:15:47;;;;;;;1.67;0.80;;;;;;;;;;5446475;26;20079;-65
2024/04/13 13:18:17;;;;;;;2.30;0.88;;;;;;;;;;5436904;26;19999;-64
2024/04/13 13:20:48;;;;;;;2.17;0.85;;;;;;;;;;5444173;26;20018;-64
2024/04/13 13:23:15;;;;;;;2.63;0.93;;;;;;;;;;5439336;26;20014;-64
2024/04/13 13:25:45;;;;;;;2.05;0.80;;;;;;;;;;5432355;26;20007;-65
2024/04/13 13:28:13;;;;;;;2.15;0.70;;;;;;;;;;5444752;26;19999;-66
2024/04/13 13:30:43;;;;;;;0.70;0.70;;;;;;;;;;5447229;26;20076;-65
2024/04/13 13:33:12;;;;;;;0.80;0.80;;;;;;;;;;5436452;26;20550;-65
2024/04/13 13:35:45;;;;;;;1.35;0.80;;;;;;;;;;5444674;26;20018;-65
2024/04/13 13:38:12;;;;;;;1.67;0.90;;;;;;;;;;5444232;26;20110;-66
2024/04/13 13:40:42;;;;;;;4.30;1.10;;;;;;;;;;5446969;26;20002;-66
2024/04/13 13:43:11;;;;;;;4.03;0.93;;;;;;;;;;5439482;26;20014;-66
2024/04/13 13:45:42;;;;;;;2.05;0.77;;;;;;;;;;5433497;26;20049;-67
2024/04/13 13:48:09;;;;;;;0.75;0.70;;;;;;;;;;5444041;26;20380;-64
2024/04/13 13:50:40;;;;;;;2.15;0.80;;;;;;;;;;5445460;26;20102;-64
2024/04/13 13:53:10;;;;;;;1.02;0.70;;;;;;;;;;5444630;26;19999;-65
2024/04/13 13:55:40;;;;;;;0.80;0.60;;;;;;;;;;5445321;26;20389;-65
2024/04/13 13:58:08;;;;;;;1.30;0.73;;;;;;;;;;5445034;26;20075;-64
2024/04/13 14:00:41;;;;;;;1.20;0.90;;;;;;;;;;5444132;26;20013;-65
2024/04/13 14:03:09;;;;;;;1.13;0.70;;;;;;;;;;5438466;26;20002;-65
2024/04/13 14:05:39;;;;;;;1.40;0.70;;;;;;;;;;5445188;26;20007;-66
2024/04/13 14:08:07;;;;;;;0.90;0.80;;;;;;;;;;5423691;26;20000;-66
2024/04/13 14:10:40;;;;;;;2.42;0.80;;;;;;;;;;5425456;26;20019;-64
2024/04/13 14:13:07;;;;;;;1.02;0.82;;;;;;;;;;5437894;26;20006;-64
2024/04/13 14:15:38;;;;;;;0.70;0.70;;;;;;;;;;5440604;26;20355;-65
2024/04/13 14:18:06;;;;;;;2.28;0.90;;;;;;;;;;5445255;26;20003;-65
2024/04/13 14:20:36;;;;;;;1.92;0.90;;;;;;;;;;5444472;26;20340;-65
2024/04/13 14:23:04;;;;;;;2.63;1.45;;;;;;;;;;5445639;26;20084;-64
2024/04/13 14:25:34;;;;;;;0.80;0.80;;;;;;;;;;5437269;26;20003;-64
2024/04/13 14:28:06;;;;;;;1.60;1.00;;;;;;;;;;5443365;26;20348;-64
2024/04/13 14:30:36;;;;;;;2.25;0.85;;;;;;;;;;5432327;26;20348;-65
2024/04/13 14:33:05;;;;;;;1.35;0.80;;;;;;;;;;5436071;26;20554;-65
2024/04/13 14:35:35;;;;;;;0.88;0.70;;;;;;;;;;5435857;26;20019;-65
2024/04/13 14:38:04;;;;;;;2.28;1.00;;;;;;;;;;5434303;26;20011;-64
2024/04/13 14:40:34;;;;;;;3.05;0.90;;;;;;;;;;5432284;26;20003;-65
2024/04/13 14:43:02;;;;;;;1.40;0.90;;;;;;;;;;5434839;26;19995;-65
2024/04/13 14:45:35;;;;;;;2.78;1.10;;;;;;;;;;5441341;26;20070;-66
2024/04/13 14:48:02;;;;;;;1.65;1.00;;;;;;;;;;5433719;26;20348;-65
2024/04/13 14:50:33;;;;;;;2.10;1.00;;;;;;;;;;5443719;26;20013;-64
2024/04/13 14:53:00;;;;;;;0.90;0.82;;;;;;;;;;5443034;26;20009;-65
2024/04/13 14:55:30;;;;;;;2.22;1.25;;;;;;;;;;5442258;26;20452;-65
2024/04/13 14:57:58;;;;;;;0.93;0.75;;;;;;;;;;5437503;26;20527;-64